createdAt,value
2018-04-22T00:02:01.328Z,14.50
2018-04-22T00:04:29.604Z,14.70
2018-04-22T00:06:58.626Z,15.47
2018-04-22T00:09:26.879Z,14.10
2018-04-22T00:11:55.153Z,14.80
2018-04-22T00:14:23.407Z,15.10
2018-04-22T00:16:51.656Z,15.50
2018-04-22T00:19:19.983Z,16.67
2018-04-22T00:21:48.252Z,16.00
2018-04-22T00:24:17.272Z,16.40
2018-04-22T00:26:45.675Z,14.27
2018-04-22T00:29:13.928Z,15.50
2018-04-22T00:31:42.175Z,16.20
2018-04-22T00:34:10.458Z,15.80
2018-04-22T00:36:40.658Z,15.97
2018-04-22T00:39:08.904Z,15.07
2018-04-22T00:41:37.545Z,16.60
2018-04-22T00:44:05.794Z,16.70
2018-04-22T00:46:34.040Z,16.63
2018-04-22T00:49:02.319Z,16.13
2018-04-22T00:51:30.571Z,16.47
2018-04-22T00:54:10.607Z,17.37
2018-04-22T00:56:38.855Z,15.10
2018-04-22T00:59:08.799Z,15.30
2018-04-22T01:01:37.420Z,16.17
2018-04-22T01:04:05.681Z,14.90
2018-04-22T01:06:34.103Z,16.37
2018-04-22T01:09:02.384Z,15.97
2018-04-22T01:11:30.633Z,16.63
2018-04-22T01:13:58.885Z,16.13
2018-04-22T01:16:27.363Z,15.13
2018-04-22T01:18:55.612Z,16.83
2018-04-22T01:21:23.867Z,16.00
2018-04-22T01:23:53.104Z,15.93
2018-04-22T01:26:22.120Z,15.50
2018-04-22T01:28:50.520Z,16.70
2018-04-22T01:31:18.787Z,17.10
2018-04-22T01:33:47.040Z,15.60
2018-04-22T01:36:15.287Z,17.20
2018-04-22T01:38:43.555Z,20.80
2018-04-22T01:41:13.323Z,17.40
2018-04-22T01:43:41.829Z,17.67
2018-04-22T01:46:10.395Z,17.23
2018-04-22T01:48:38.652Z,16.40
2018-04-22T01:51:06.903Z,16.60
2018-04-22T01:53:35.227Z,16.57
2018-04-22T01:56:03.483Z,17.03
2018-04-22T01:58:31.731Z,16.60
2018-04-22T02:01:00.069Z,17.20
2018-04-22T02:03:28.320Z,17.67
2018-04-22T02:05:56.736Z,16.73
2018-04-22T02:08:25.501Z,16.00
2018-04-22T02:10:53.754Z,17.47
2018-04-22T02:13:22.292Z,17.23
2018-04-22T02:15:50.562Z,17.90
2018-04-22T02:18:18.807Z,17.40
2018-04-22T02:20:47.062Z,18.07
2018-04-22T02:23:15.332Z,19.77
2018-04-22T02:25:43.588Z,20.30
2018-04-22T02:28:11.837Z,20.40
2018-04-22T02:30:40.383Z,18.63
2018-04-22T02:33:08.640Z,19.50
2018-04-22T02:35:37.668Z,19.67
2018-04-22T02:38:05.927Z,19.70
2018-04-22T02:40:34.188Z,20.50
2018-04-22T02:43:02.432Z,18.33
2018-04-22T02:45:31.784Z,16.40
2018-04-22T02:48:00.039Z,19.30
2018-04-22T02:50:28.295Z,17.73
2018-04-22T02:52:57.549Z,18.90
2018-04-22T02:55:26.164Z,17.53
2018-04-22T02:57:54.424Z,17.93
2018-04-22T03:00:22.687Z,18.30
2018-04-22T03:02:50.943Z,17.27
2018-04-22T03:05:19.570Z,18.90
2018-04-22T03:07:47.869Z,18.73
2018-04-22T03:10:16.107Z,17.80
2018-04-22T03:12:44.351Z,16.53
2018-04-22T03:15:12.672Z,18.90
2018-04-22T03:17:40.963Z,17.70
2018-04-22T03:20:09.218Z,17.63
2018-04-22T03:22:37.488Z,20.17
2018-04-22T03:25:05.743Z,20.10
2018-04-22T03:27:33.995Z,20.30
2018-04-22T03:30:02.273Z,17.90
2018-04-22T03:32:31.291Z,18.77
2018-04-22T03:34:59.536Z,19.40
2018-04-22T03:37:28.013Z,21.37
2018-04-22T03:39:56.265Z,20.43
2018-04-22T03:42:24.519Z,20.90
2018-04-22T03:44:52.796Z,21.07
2018-04-22T03:47:21.227Z,19.30
2018-04-22T03:49:50.251Z,21.67
2018-04-22T03:52:18.643Z,21.70
2018-04-22T03:54:46.887Z,19.67
2018-04-22T03:57:15.136Z,21.90
2018-04-22T03:59:44.399Z,20.90
2018-04-22T04:02:12.656Z,22.47
2018-04-22T04:04:40.911Z,24.23
2018-04-22T04:07:09.183Z,20.53
2018-04-22T04:09:38.208Z,22.80
2018-04-22T04:12:06.460Z,23.77
2018-04-22T04:14:34.747Z,23.23
2018-04-22T04:17:02.983Z,22.70
2018-04-22T04:19:43.183Z,23.43
2018-04-22T04:22:23.471Z,24.37
2018-04-22T04:25:03.599Z,24.20
2018-04-22T04:27:46.070Z,25.10
2018-04-22T04:30:14.347Z,23.07
2018-04-22T04:32:42.791Z,25.17
2018-04-22T04:35:11.047Z,22.57
2018-04-22T04:37:39.433Z,24.70
2018-04-22T04:40:07.926Z,24.73
2018-04-22T04:42:36.171Z,26.13
2018-04-22T04:45:04.452Z,24.80
2018-04-22T04:47:33.027Z,26.83
2018-04-22T04:50:02.488Z,27.07
2018-04-22T04:52:30.775Z,28.20
2018-04-22T04:54:59.033Z,27.47
2018-04-22T04:57:27.280Z,27.80
2018-04-22T04:59:55.863Z,26.90
2018-04-22T05:02:24.257Z,26.13
2018-04-22T05:04:52.501Z,27.17
2018-04-22T05:07:20.780Z,26.27
2018-04-22T05:09:49.035Z,26.60
2018-04-22T05:12:18.059Z,30.07
2018-04-22T05:14:46.336Z,28.97
2018-04-22T05:17:14.587Z,31.20
2018-04-22T05:19:42.843Z,32.50
2018-04-22T05:22:11.293Z,33.90
2018-04-22T05:24:39.543Z,30.53
2018-04-22T05:27:07.791Z,31.60
2018-04-22T05:29:36.064Z,34.23
2018-04-22T05:32:04.323Z,31.73
2018-04-22T05:34:32.580Z,28.27
2018-04-22T05:37:00.843Z,30.37
2018-04-22T05:39:29.092Z,28.70
2018-04-22T05:41:57.344Z,29.20
2018-04-22T05:44:25.828Z,29.47
2018-04-22T05:46:54.844Z,28.60
2018-04-22T05:49:23.324Z,28.27
2018-04-22T05:51:51.591Z,27.43
2018-04-22T05:54:19.843Z,27.33
2018-04-22T05:56:48.096Z,26.63
2018-04-22T05:59:16.365Z,27.20
2018-04-22T06:01:44.626Z,25.77
2018-04-22T06:04:12.872Z,28.73
2018-04-22T06:06:41.460Z,27.70
2018-04-22T06:09:10.472Z,28.17
2018-04-22T06:11:38.727Z,28.00
2018-04-22T06:14:07.031Z,26.60
2018-04-22T06:16:35.287Z,27.60
2018-04-22T06:19:04.303Z,27.00
2018-04-22T06:21:32.574Z,25.00
2018-04-22T06:24:01.079Z,24.10
2018-04-22T06:26:31.535Z,23.87
2018-04-22T06:29:00.292Z,23.00
2018-04-22T06:31:28.655Z,23.30
2018-04-22T06:33:57.021Z,24.57
2018-04-22T06:36:25.292Z,22.83
2018-04-22T06:38:53.557Z,23.90
2018-04-22T06:41:22.583Z,22.60
2018-04-22T06:43:50.864Z,23.40
2018-04-22T06:46:19.381Z,21.43
2018-04-22T06:48:47.619Z,24.67
2018-04-22T06:51:16.047Z,24.17
2018-04-22T06:53:44.292Z,24.37
2018-04-22T06:56:12.551Z,22.97
2018-04-22T06:58:40.844Z,24.27
2018-04-22T07:01:09.104Z,25.70
2018-04-22T07:03:37.358Z,25.87
2018-04-22T07:06:05.635Z,24.43
2018-04-22T07:08:34.655Z,24.60
2018-04-22T07:11:03.047Z,23.97
2018-04-22T07:13:31.452Z,23.30
2018-04-22T07:16:00.503Z,26.03
2018-04-22T07:18:28.760Z,24.10
2018-04-22T07:20:57.804Z,24.93
2018-04-22T07:23:26.090Z,24.90
2018-04-22T07:25:54.339Z,24.50
2018-04-22T07:28:22.612Z,24.47
2018-04-22T07:30:51.004Z,26.53
2018-04-22T07:33:19.380Z,24.80
2018-04-22T07:35:47.792Z,26.37
2018-04-22T07:38:16.803Z,26.50
2018-04-22T07:40:45.081Z,25.07
2018-04-22T07:43:13.507Z,27.20
2018-04-22T07:45:41.757Z,27.53
2018-04-22T07:48:10.011Z,28.17
2018-04-22T07:50:38.291Z,29.30
2018-04-22T07:53:07.643Z,26.80
2018-04-22T07:55:36.868Z,30.60
2018-04-22T07:58:05.624Z,29.07
2018-04-22T08:00:33.871Z,28.73
2018-04-22T08:03:02.128Z,27.67
2018-04-22T08:05:30.411Z,29.80
2018-04-22T08:07:59.440Z,28.23
2018-04-22T08:10:27.693Z,28.30
2018-04-22T08:12:55.964Z,30.60
2018-04-22T08:15:24.283Z,28.63
2018-04-22T08:17:52.535Z,29.17
2018-04-22T08:20:21.352Z,29.33
2018-04-22T08:22:49.656Z,29.00
2018-04-22T08:25:17.903Z,28.50
2018-04-22T08:27:46.176Z,26.87
2018-04-22T08:30:14.431Z,29.70
2018-04-22T08:32:42.674Z,25.30
2018-04-22T08:35:10.951Z,27.93
2018-04-22T08:37:39.971Z,27.10
2018-04-22T08:40:08.220Z,26.20
2018-04-22T08:42:36.699Z,25.70
2018-04-22T08:45:05.056Z,23.83
2018-04-22T08:47:33.307Z,26.37
2018-04-22T08:50:01.584Z,25.90
2018-04-22T08:52:29.823Z,24.90
2018-04-22T08:54:58.295Z,25.37
2018-04-22T08:57:27.335Z,28.00
2018-04-22T08:59:55.588Z,26.50
2018-04-22T09:02:23.864Z,25.50
2018-04-22T09:04:52.439Z,26.93
2018-04-22T09:07:21.601Z,26.73
2018-04-22T09:09:49.846Z,24.60
2018-04-22T09:12:18.230Z,24.20
2018-04-22T09:14:46.480Z,24.90
2018-04-22T09:17:14.860Z,23.87
2018-04-22T09:19:43.136Z,23.93
2018-04-22T09:22:11.400Z,23.10
2018-04-22T09:24:39.699Z,21.27
2018-04-22T09:27:08.209Z,23.20
2018-04-22T09:29:36.455Z,21.87
2018-04-22T09:32:04.708Z,21.70
2018-04-22T09:34:32.979Z,21.40
2018-04-22T09:37:02.000Z,20.73
2018-04-22T09:39:30.247Z,22.27
2018-04-22T09:41:58.528Z,21.10
2018-04-22T09:44:26.777Z,20.10
2018-04-22T09:46:55.028Z,21.30
2018-04-22T09:49:23.572Z,21.13
2018-04-22T09:51:52.592Z,19.70
2018-04-22T09:54:20.839Z,19.40
2018-04-22T09:56:49.388Z,18.70
2018-04-22T09:59:17.640Z,18.57
2018-04-22T10:01:45.895Z,20.40
2018-04-22T10:04:14.171Z,19.50
2018-04-22T10:06:42.527Z,18.87
2018-04-22T10:09:11.552Z,17.37
2018-04-22T10:11:40.289Z,20.17
2018-04-22T10:14:08.532Z,17.90
2018-04-22T10:16:36.814Z,16.87
2018-04-22T10:19:05.063Z,18.47
2018-04-22T10:21:33.316Z,17.67
2018-04-22T10:24:01.837Z,18.40
2018-04-22T10:26:30.168Z,18.37
2018-04-22T10:28:59.195Z,17.20
2018-04-22T10:31:27.712Z,18.93
2018-04-22T10:33:56.275Z,17.07
2018-04-22T10:36:24.531Z,16.37
2018-04-22T10:38:52.781Z,18.00
2018-04-22T10:41:21.058Z,19.83
2018-04-22T10:43:50.079Z,19.73
2018-04-22T10:46:18.447Z,17.20
2018-04-22T10:48:47.485Z,16.43
2018-04-22T10:51:15.771Z,17.33
2018-04-22T10:53:44.028Z,17.30
2018-04-22T10:56:12.347Z,17.00
2018-04-22T10:58:41.599Z,15.90
2018-04-22T11:01:09.880Z,13.90
2018-04-22T11:03:38.156Z,16.60
2018-04-22T11:06:06.415Z,13.30
2018-04-22T11:08:34.661Z,18.23
2018-04-22T11:11:03.272Z,15.77
2018-04-22T11:13:31.515Z,16.50
2018-04-22T11:16:00.540Z,14.97
2018-04-22T11:18:28.897Z,13.97
2018-04-22T11:20:57.916Z,13.47
2018-04-22T11:23:26.168Z,13.40
2018-04-22T11:25:54.444Z,11.33
2018-04-22T11:28:23.466Z,11.00
2018-04-22T11:30:51.717Z,11.33
2018-04-22T11:33:20.759Z,11.70
2018-04-22T11:35:49.007Z,10.60
2018-04-22T11:38:17.327Z,12.20
2018-04-22T11:40:45.716Z,12.43
2018-04-22T11:43:13.959Z,12.30
2018-04-22T11:45:42.219Z,10.93
2018-04-22T11:48:11.263Z,9.10
2018-04-22T11:50:39.515Z,8.90
2018-04-22T11:53:07.759Z,9.90
2018-04-22T11:55:36.040Z,8.50
2018-04-22T11:58:04.294Z,8.90
2018-04-22T12:00:33.488Z,7.50
2018-04-22T12:03:02.817Z,8.10
2018-04-22T12:05:31.068Z,8.70
2018-04-22T12:07:59.307Z,8.30
2018-04-22T12:10:27.571Z,6.90
2018-04-22T12:12:55.820Z,6.10
2018-04-22T12:15:24.064Z,4.73
2018-04-22T12:17:52.339Z,5.00
2018-04-22T12:20:20.572Z,3.93
2018-04-22T12:22:48.828Z,3.63
2018-04-22T12:25:17.320Z,5.17
2018-04-22T12:27:45.565Z,3.40
2018-04-22T12:30:14.089Z,3.20
2018-04-22T12:32:42.350Z,3.40
2018-04-22T12:35:10.591Z,3.93
2018-04-22T12:37:38.832Z,4.20
2018-04-22T12:40:07.417Z,3.30
2018-04-22T12:42:35.639Z,3.67
2018-04-22T12:45:04.656Z,4.00
2018-04-22T12:47:33.044Z,3.20
2018-04-22T12:50:01.296Z,3.40
2018-04-22T12:52:29.540Z,3.60
2018-04-22T12:54:57.815Z,3.87
2018-04-22T12:57:26.176Z,3.37
2018-04-22T12:59:54.419Z,4.17
2018-04-22T13:02:22.691Z,3.77
2018-04-22T13:04:50.932Z,3.33
2018-04-22T13:07:19.176Z,2.93
2018-04-22T13:09:47.485Z,2.87
2018-04-22T13:12:16.492Z,4.20
2018-04-22T13:14:45.500Z,3.27
2018-04-22T13:17:13.761Z,3.97
2018-04-22T13:19:42.240Z,3.20
2018-04-22T13:22:10.436Z,3.27
2018-04-22T13:24:38.702Z,3.47
2018-04-22T13:27:07.704Z,4.10
2018-04-22T13:29:36.044Z,3.20
2018-04-22T13:32:04.361Z,3.47
2018-04-22T13:34:32.607Z,3.73
2018-04-22T13:37:01.778Z,3.43
2018-04-22T13:39:30.037Z,3.03
2018-04-22T13:41:58.340Z,3.50
2018-04-22T13:44:26.579Z,3.10
2018-04-22T13:46:54.846Z,3.20
2018-04-22T13:49:23.088Z,3.33
2018-04-22T13:51:52.099Z,3.30
2018-04-22T13:54:24.555Z,3.47
2018-04-22T13:56:52.740Z,3.33
2018-04-22T13:59:20.983Z,3.20
2018-04-22T14:01:49.336Z,3.53
2018-04-22T14:04:17.599Z,3.90
2018-04-22T14:06:46.091Z,3.10
2018-04-22T14:09:16.567Z,3.80
2018-04-22T14:11:44.922Z,3.70
2018-04-22T14:14:13.166Z,3.80
2018-04-22T14:16:41.482Z,3.57
2018-04-22T14:19:09.719Z,3.50
2018-04-22T14:21:37.962Z,3.57
2018-04-22T14:24:06.234Z,3.90
2018-04-22T14:26:34.498Z,3.50
2018-04-22T14:29:02.958Z,3.10
2018-04-22T14:31:31.220Z,3.37
2018-04-22T14:33:59.763Z,3.50
2018-04-22T14:36:29.935Z,3.20
2018-04-22T14:38:59.631Z,3.47
2018-04-22T14:41:28.026Z,3.40
2018-04-22T14:44:08.486Z,3.03
2018-04-22T14:46:38.068Z,3.10
2018-04-22T14:49:06.574Z,2.53
2018-04-22T14:51:34.981Z,3.30
2018-04-22T14:54:03.339Z,4.27
2018-04-22T14:56:32.647Z,3.17
2018-04-22T14:59:02.021Z,3.47
2018-04-22T15:01:30.333Z,3.60
2018-04-22T15:03:59.016Z,3.20
2018-04-22T15:06:27.282Z,3.20
2018-04-22T15:08:55.516Z,3.33
2018-04-22T15:11:23.759Z,3.37
2018-04-22T15:13:52.237Z,3.53
2018-04-22T15:16:20.602Z,3.80
2018-04-22T15:18:49.081Z,3.70
2018-04-22T15:21:17.424Z,3.00
2018-04-22T15:23:45.727Z,3.77
2018-04-22T15:26:13.968Z,2.87
2018-04-22T15:28:42.243Z,3.47
2018-04-22T15:31:10.675Z,3.57
2018-04-22T15:33:38.935Z,3.20
2018-04-22T15:36:07.337Z,3.20
2018-04-22T15:38:35.715Z,3.40
2018-04-22T15:41:04.075Z,3.40
2018-04-22T15:43:33.447Z,3.40
2018-04-22T15:46:01.768Z,3.47
2018-04-22T15:48:30.235Z,3.43
2018-04-22T15:50:58.544Z,3.57
2018-04-22T15:53:27.812Z,3.60
2018-04-22T15:55:56.193Z,3.10
2018-04-22T15:58:24.608Z,3.20
2018-04-22T16:00:54.812Z,2.80
2018-04-22T16:03:23.479Z,3.40
2018-04-22T16:05:52.247Z,2.77
2018-04-22T16:08:20.596Z,3.10
2018-04-22T16:10:50.156Z,2.50
2018-04-22T16:13:18.871Z,2.50
2018-04-22T16:15:49.076Z,2.60
2018-04-22T16:18:17.455Z,3.07
2018-04-22T16:20:46.783Z,2.93
2018-04-22T16:23:16.982Z,2.60
2018-04-22T16:25:45.391Z,3.33
2018-04-22T16:28:13.823Z,3.30
2018-04-22T16:30:43.036Z,3.10
2018-04-22T16:33:12.340Z,2.63
2018-04-22T16:35:40.767Z,3.30
2018-04-22T16:38:10.327Z,3.27
2018-04-22T16:40:38.692Z,4.37
2018-04-22T16:43:06.971Z,3.00
2018-04-22T16:45:36.384Z,3.90
2018-04-22T16:48:04.627Z,3.30
2018-04-22T16:50:34.142Z,2.70
2018-04-22T16:53:02.752Z,3.20
2018-04-22T16:55:31.120Z,3.50
2018-04-22T16:58:00.451Z,3.17
2018-04-22T17:00:34.332Z,3.63
2018-04-22T17:03:02.740Z,2.90
2018-04-22T17:05:31.770Z,3.20
2018-04-22T17:08:00.999Z,4.03
2018-04-22T17:10:29.456Z,3.07
2018-04-22T17:12:57.758Z,3.40
2018-04-22T17:15:26.138Z,3.40
2018-04-22T17:17:54.560Z,3.37
2018-04-22T17:20:27.515Z,3.33
2018-04-22T17:22:57.763Z,4.23
2018-04-22T17:25:26.766Z,3.73
2018-04-22T17:27:56.028Z,3.97
2018-04-22T17:30:24.644Z,3.60
2018-04-22T17:32:53.156Z,4.20
2018-04-22T17:35:21.470Z,3.37
2018-04-22T17:37:49.864Z,3.60
2018-04-22T17:40:18.220Z,3.90
2018-04-22T17:42:46.599Z,3.50
2018-04-22T17:45:15.255Z,4.60
2018-04-22T17:47:43.661Z,4.43
2018-04-22T17:50:12.061Z,3.83
2018-04-22T17:52:40.816Z,4.17
2018-04-22T17:55:11.259Z,3.93
2018-04-22T17:57:39.495Z,3.80
2018-04-22T18:00:07.778Z,3.77
2018-04-22T18:02:36.095Z,4.80
2018-04-22T18:05:04.811Z,4.70
2018-04-22T18:07:33.845Z,3.90
2018-04-22T18:10:02.097Z,4.43
2018-04-22T18:12:30.333Z,4.70
2018-04-22T18:14:58.728Z,4.50
2018-04-22T18:17:27.101Z,4.40
2018-04-22T18:19:57.524Z,4.40
2018-04-22T18:22:25.919Z,4.83
2018-04-22T18:24:54.947Z,4.90
2018-04-22T18:27:23.191Z,4.10
2018-04-22T18:29:51.463Z,4.63
2018-04-22T18:32:19.710Z,3.80
2018-04-22T18:34:51.174Z,5.90
2018-04-22T18:37:19.828Z,5.17
2018-04-22T18:39:48.071Z,4.60
2018-04-22T18:42:16.307Z,4.67
2018-04-22T18:44:44.710Z,4.90
2018-04-22T18:47:13.712Z,5.33
2018-04-22T18:49:42.731Z,4.80
2018-04-22T18:52:11.088Z,4.87
2018-04-22T18:54:40.095Z,4.90
2018-04-22T18:57:08.339Z,5.20
2018-04-22T18:59:36.840Z,5.90
2018-04-22T19:02:05.856Z,5.90
2018-04-22T19:04:34.187Z,5.37
2018-04-22T19:07:02.458Z,6.43
2018-04-22T19:09:30.982Z,9.93
2018-04-22T19:12:00.327Z,19.23
2018-04-22T19:14:28.647Z,22.50
2018-04-22T19:16:57.712Z,13.67
2018-04-22T19:19:25.947Z,11.67
2018-04-22T19:21:54.751Z,7.57
2018-04-22T19:24:23.011Z,7.43
2018-04-22T19:26:51.437Z,6.90
2018-04-22T19:29:19.840Z,6.50
2018-04-22T19:31:50.036Z,6.03
2018-04-22T19:34:19.344Z,6.07
2018-04-22T19:36:47.724Z,5.87
2018-04-22T19:39:15.968Z,5.70
2018-04-22T19:41:44.215Z,5.93
2018-04-22T19:44:12.563Z,5.47
2018-04-22T19:46:40.809Z,5.37
2018-04-22T19:49:09.055Z,6.40
2018-04-22T19:51:37.395Z,6.00
2018-04-22T19:54:06.415Z,5.57
2018-04-22T19:56:35.424Z,7.07
2018-04-22T19:59:03.692Z,5.83
2018-04-22T20:01:31.936Z,6.93
2018-04-22T20:04:00.188Z,7.50
2018-04-22T20:06:28.672Z,6.50
2018-04-22T20:08:56.939Z,5.63
2018-04-22T20:11:25.184Z,5.53
2018-04-22T20:13:53.448Z,6.33
2018-04-22T20:16:21.696Z,6.10
2018-04-22T20:18:49.933Z,6.07
2018-04-22T20:21:18.195Z,7.17
2018-04-22T20:23:46.597Z,5.90
2018-04-22T20:26:14.836Z,6.07
2018-04-22T20:28:43.440Z,7.03
2018-04-22T20:31:11.683Z,6.97
2018-04-22T20:33:39.957Z,5.93
2018-04-22T20:36:08.187Z,5.33
2018-04-22T20:38:36.436Z,6.73
2018-04-22T20:41:04.679Z,5.80
2018-04-22T20:43:33.733Z,5.00
2018-04-22T20:46:02.026Z,5.03
2018-04-22T20:48:30.263Z,6.67
2018-04-22T20:50:59.282Z,5.50
2018-04-22T20:53:27.507Z,6.23
2018-04-22T20:55:57.688Z,6.07
2018-04-22T20:58:25.954Z,6.17
2018-04-22T21:00:54.195Z,5.20
2018-04-22T21:03:22.440Z,7.30
2018-04-22T21:05:50.714Z,5.67
2018-04-22T21:08:19.911Z,6.17
2018-04-22T21:10:48.927Z,5.87
2018-04-22T21:13:17.740Z,6.70
2018-04-22T21:15:45.985Z,6.23
2018-04-22T21:18:15.000Z,5.57
2018-04-22T21:20:43.268Z,6.40
2018-04-22T21:23:11.519Z,6.50
2018-04-22T21:25:39.767Z,5.70
2018-04-22T21:28:08.028Z,5.70
2018-04-22T21:30:36.279Z,7.50
2018-04-22T21:33:04.524Z,6.37
2018-04-22T21:35:33.055Z,5.83
2018-04-22T21:38:01.299Z,6.13
2018-04-22T21:40:29.540Z,5.20
2018-04-22T21:42:57.801Z,5.77
2018-04-22T21:45:28.028Z,5.73
2018-04-22T21:47:56.263Z,6.23
2018-04-22T21:50:24.679Z,6.50
2018-04-22T21:52:52.907Z,6.73
2018-04-22T21:55:21.148Z,6.43
2018-04-22T21:57:49.472Z,6.27
2018-04-22T22:00:17.720Z,6.07
2018-04-22T22:02:46.729Z,6.17
2018-04-22T22:05:16.115Z,5.97
2018-04-22T22:07:45.120Z,5.87
2018-04-22T22:10:14.308Z,5.80
2018-04-22T22:12:43.339Z,5.67
2018-04-22T22:15:11.583Z,4.73
2018-04-22T22:17:39.837Z,6.00
2018-04-22T22:20:08.236Z,5.60
2018-04-22T22:22:36.479Z,5.47
2018-04-22T22:25:04.723Z,5.03
2018-04-22T22:27:32.995Z,6.27
2018-04-22T22:30:01.249Z,6.87
2018-04-22T22:32:29.499Z,5.97
2018-04-22T22:34:57.759Z,5.50
2018-04-22T22:37:26.135Z,5.57
2018-04-22T22:39:54.382Z,5.70
2018-04-22T22:42:22.802Z,5.90
2018-04-22T22:44:51.052Z,5.20
2018-04-22T22:47:19.304Z,6.57
2018-04-22T22:49:47.564Z,6.03
2018-04-22T22:52:16.571Z,5.27
2018-04-22T22:54:44.819Z,4.60
2018-04-22T22:57:13.336Z,4.83
2018-04-22T22:59:41.579Z,6.07
2018-04-22T23:02:10.594Z,5.50
2018-04-22T23:04:38.919Z,6.17
2018-04-22T23:07:07.157Z,5.57
2018-04-22T23:09:35.409Z,5.73
2018-04-22T23:12:04.671Z,5.00
2018-04-22T23:14:32.908Z,6.20
2018-04-22T23:17:01.162Z,5.67
2018-04-22T23:19:30.190Z,6.40
2018-04-22T23:21:58.431Z,6.37
2018-04-22T23:24:26.679Z,5.80
2018-04-22T23:26:54.992Z,5.30
2018-04-22T23:29:25.203Z,5.30
2018-04-22T23:31:53.411Z,5.37
2018-04-22T23:34:21.733Z,5.90
2018-04-22T23:36:49.928Z,5.43
2018-04-22T23:39:18.175Z,5.67
2018-04-22T23:41:46.449Z,5.50
2018-04-22T23:44:14.690Z,5.00
2018-04-22T23:46:42.935Z,5.53
2018-04-22T23:49:12.100Z,4.80
2018-04-22T23:51:40.345Z,5.60
2018-04-22T23:54:08.592Z,5.37
2018-04-22T23:56:36.859Z,5.77
2018-04-22T23:59:05.108Z,5.07
